EHAMEKBI

Guest
Details From EHAM - Schiphol
To EKBI - Billund
Flight Number -
Tags generated
Created
Modified
Stats Distance 261 nm / 483 km
Max Altitude 33,800 ft / 10,302 m
Waypoints 5
Social Downloads 1
Likes 0
Share VATSIM

Download

Looking for another format? Having issues loading an existing format? Contact us
Advertisement - Login to hide

Notes

Basic altitude profile: - Ascent Rate: 2000ft/min - Ascent Speed: 250kts - Cruise Altitude: 32000ft - Cruise Speed: 320kts - Descent Rate: 1500ft/min - Descent Speed: 240kts Options: - Use NATs: yes - Use PACOTS: yes - Use low airways: yes - Use high airways: no

Route

EHAM LABIL R12 JUIST N873 WELGO EKBI

ID Type Via Altitude Latitude Longitude Leg Dist Tot Dist Heading (true) Name
O EHAM APT - 0 ft / 0 m 52.31485˚ 4.75812˚ - 0 nm - Schiphol
LABIL FIX - 33,800 ft / 10,302 m 53.49583˚ 6.81648˚ 102 nm 102 nm 46° / 47° -
JUIST FIX R12 (AWY-LO) 32,600 ft / 9,936 m 53.56278˚ 6.92000˚ 5 nm 108 nm 43° / 43° -
WELGO FIX N873 (AWY-LO) 22,500 ft / 6,858 m 54.29833˚ 7.41583˚ 47 nm 155 nm 21° / 22° -
O EKBI APT - 0 ft / 0 m 55.73618˚ 9.15206˚ 105 nm 260 nm 34° / 35° Billund

Altitude Profile

Advertisement - Login to hide

Weather


0- 5 10 15 20 25 30 35+ Temperature / ° C

Clouds and Precipitation
Forecast for 2018-07-21 06:00 UTC. Updated 4 hours ago

Ground ~20,000 ft ~40,000 ft Winds

EHAM

Details ICAO EHAM (AMS)
Name Schiphol
Region Netherlands
Timezone Europe/Amsterdam (UTC+2.0)
Stats Elevation -11 ft / -3 m (AMSL)
Location 52.314850° 4.758121°
Runways 6
Magnetic Variation 1.216° E

METAR

EHAM 210725Z 36006KT 320V050 CAVOK 21/15 Q1011 NOSIG

Decode

TAF

TAF TAF EHAM 210430Z 2106/2212 36005KT CAVOK BECMG 2110/2113 32013KT BECMG 2118/2121 34005KT PROB30 TEMPO 2202/2205 6000 MIFG BECMG 2210/2212 30010KT

Decode

Departure Runways

ID Width Length Bearing (true) Bearing (mag) Surface Threshold Offset Overrun Length
04 148 ft / 45 m 6,620 ft / 2,018 m 41.18° 39.96° Asphalt 0 ft / 0 m 0 ft / 0 m
06 161 ft / 49 m 11,439 ft / 3,487 m 57.80° 56.58° Asphalt 820 ft / 250 m 0 ft / 0 m
09 164 ft / 50 m 11,310 ft / 3,447 m 86.77° 85.55° Asphalt 384 ft / 117 m 0 ft / 0 m
18C 161 ft / 49 m 10,842 ft / 3,305 m 183.20° 181.98° Asphalt 0 ft / 0 m 0 ft / 0 m
18L 164 ft / 50 m 11,146 ft / 3,397 m 183.17° 181.95° Asphalt 1,857 ft / 566 m 0 ft / 0 m
18R 184 ft / 56 m 12,497 ft / 3,809 m 183.16° 181.94° Asphalt 886 ft / 270 m 0 ft / 0 m
22 148 ft / 45 m 6,620 ft / 2,018 m 221.20° 219.98° Asphalt 0 ft / 0 m 915 ft / 279 m
24 161 ft / 49 m 11,439 ft / 3,487 m 237.83° 236.61° Asphalt 0 ft / 0 m 0 ft / 0 m
27 164 ft / 50 m 11,310 ft / 3,447 m 266.81° 265.59° Asphalt 0 ft / 0 m 0 ft / 0 m
36C 161 ft / 49 m 10,842 ft / 3,305 m 3.20° 1.98° Asphalt 1,476 ft / 450 m 0 ft / 0 m
36L 184 ft / 56 m 12,497 ft / 3,809 m 3.16° 1.94° Asphalt 0 ft / 0 m 0 ft / 0 m
36R 164 ft / 50 m 11,146 ft / 3,397 m 3.17° 1.95° Asphalt 0 ft / 0 m 0 ft / 0 m

EKBI

Details ICAO EKBI (BLL)
Name Billund
Region Denmark / Faroe Islands
Timezone Europe/Copenhagen (UTC+2.0)
Stats Elevation 247 ft / 75 m (AMSL)
Location 55.736183° 9.152056°
Runways 2
Magnetic Variation 2.612° E

METAR

EKBI 210720Z AUTO 27004KT 220V300 9999NDV NCD 19/11 Q1014

Decode

TAF

TAF AMD EKBI 210605Z 2106/2206 29008KT CAVOK= TAF AMD LFSB 210608Z 2106/2206 26006KT 9999 FEW025 SCT150 BECMG 2107/2109 FEW040CB SCT130 TEMPO 2109/2117 SHRA PROB30 TEMPO 2110/2114 5000 TSRA BECMG 2117/2119 CAVOK

Decode

Destination Runways

ID Width Length Bearing (true) Bearing (mag) Surface Threshold Offset Overrun Length
09 148 ft / 45 m 9,165 ft / 2,794 m 86.83° 84.22° Asphalt 351 ft / 107 m 0 ft / 0 m
10 98 ft / 30 m 2,017 ft / 615 m 93.89° 91.28° Grass 0 ft / 0 m 0 ft / 0 m
27 148 ft / 45 m 9,165 ft / 2,794 m 266.87° 264.26° Asphalt 351 ft / 107 m 0 ft / 0 m
28 98 ft / 30 m 2,017 ft / 615 m 273.89° 271.28° Grass 0 ft / 0 m 0 ft / 0 m

Approach Navaids

Runway Type Ident Frequency Range Bearing (true) Bearing (mag) Slope Elevation
09 Localiser BIL 111.70 MHz 18 nm / 33 km 86.87° 84.26° - 247 ft / 75 m (AMSL)
09 Glidescope BIL 111.70 MHz 10 nm / 19 km 86.85° 84.24° 3.00° 247 ft / 75 m (AMSL)
27 Localiser LEL 110.70 MHz 18 nm / 33 km 266.83° 264.22° - 247 ft / 75 m (AMSL)
27 Glidescope LEL 110.70 MHz 10 nm / 19 km 266.85° 264.24° 3.00° 247 ft / 75 m (AMSL)
27 DME LEL 110.70 MHz 18 nm / 33 km - - - 246 ft / 75 m (AMSL)

Popular Alternatives